createdAt,value
2016-04-24T00:00:45.127Z,987.62
2016-04-24T00:01:45.348Z,987.63
2016-04-24T00:02:45.101Z,987.62
2016-04-24T00:03:45.103Z,987.64
2016-04-24T00:04:45.106Z,987.65
2016-04-24T00:05:45.094Z,987.62
2016-04-24T00:06:45.096Z,987.68
2016-04-24T00:07:45.084Z,987.66
2016-04-24T00:08:45.133Z,987.68
2016-04-24T00:09:45.072Z,987.68
2016-04-24T00:10:45.092Z,987.72
2016-04-24T00:11:45.078Z,987.69
2016-04-24T00:12:45.284Z,987.67
2016-04-24T00:13:45.069Z,987.65
2016-04-24T00:14:45.071Z,987.7
2016-04-24T00:15:45.074Z,987.69
2016-04-24T00:16:45.091Z,987.72
2016-04-24T00:17:45.048Z,987.72
2016-04-24T00:18:45.051Z,987.72
2016-04-24T00:19:45.037Z,987.68
2016-04-24T00:20:45.243Z,987.67
2016-04-24T00:21:45.074Z,987.68
2016-04-24T00:22:45.482Z,987.72
2016-04-24T00:23:45.065Z,987.69
2016-04-24T00:24:45.035Z,987.69
2016-04-24T00:25:45.022Z,987.73
2016-04-24T00:26:45.041Z,987.73
2016-04-24T00:27:45.043Z,987.71
2016-04-24T00:28:45.014Z,987.67
2016-04-24T00:29:45.018Z,987.65
2016-04-24T00:30:45.036Z,987.69
2016-04-24T00:31:45.007Z,987.69
2016-04-24T00:32:45.009Z,987.72
2016-04-24T00:33:44.997Z,987.7
2016-04-24T00:34:45.000Z,987.69
2016-04-24T00:35:45.002Z,987.72
2016-04-24T00:37:46.039Z,987.68
2016-04-24T00:38:44.979Z,987.69
2016-04-24T00:40:45.000Z,987.69
2016-04-24T00:41:44.971Z,987.68
2016-04-24T00:42:44.959Z,987.66
2016-04-24T00:43:44.961Z,987.69
2016-04-24T00:44:44.948Z,987.64
2016-04-24T00:45:44.952Z,987.67
2016-04-24T00:47:44.957Z,987.66
2016-04-24T00:48:44.943Z,987.59
2016-04-24T00:50:45.137Z,987.62
2016-04-24T00:51:44.935Z,987.66
2016-04-24T00:52:44.923Z,987.63
2016-04-24T00:53:44.926Z,987.6
2016-04-24T00:54:44.912Z,987.63
2016-04-24T00:55:44.916Z,987.66
2016-04-24T00:56:44.918Z,987.6
2016-04-24T00:57:44.905Z,987.57
2016-04-24T00:58:44.909Z,987.62
2016-04-24T00:59:44.942Z,987.6
2016-04-24T01:00:44.897Z,987.6
2016-04-24T01:01:44.901Z,987.61
2016-04-24T01:02:44.887Z,987.61
2016-04-24T01:03:44.890Z,987.61
2016-04-24T01:04:44.893Z,987.59
2016-04-24T01:05:44.880Z,987.67
2016-04-24T01:06:44.883Z,987.6
2016-04-24T01:08:44.872Z,987.59
2016-04-24T01:09:44.875Z,987.63
2016-04-24T01:10:44.877Z,987.62
2016-04-24T01:11:44.850Z,987.64
2016-04-24T01:12:44.852Z,987.67
2016-04-24T01:13:44.854Z,987.65
2016-04-24T01:14:44.873Z,987.64
2016-04-24T01:15:45.250Z,987.71
2016-04-24T01:16:44.831Z,987.68
2016-04-24T01:17:44.835Z,987.61
2016-04-24T01:18:44.821Z,987.67
2016-04-24T01:19:44.840Z,987.69
2016-04-24T01:20:44.827Z,987.6
2016-04-24T01:21:44.829Z,987.69
2016-04-24T01:22:44.803Z,987.71
2016-04-24T01:23:44.820Z,987.69
2016-04-24T01:24:44.855Z,987.71
2016-04-24T01:25:44.826Z,987.66
2016-04-24T01:26:44.797Z,987.68
2016-04-24T01:27:44.801Z,987.69
2016-04-24T01:28:44.787Z,987.72
2016-04-24T01:29:44.978Z,987.65
2016-04-24T01:30:44.778Z,987.68
2016-04-24T01:31:44.764Z,987.72
2016-04-24T01:32:44.798Z,987.73
2016-04-24T01:34:44.757Z,987.7
2016-04-24T01:35:44.760Z,987.69
2016-04-24T01:36:44.747Z,987.73
2016-04-24T01:37:44.952Z,987.75
2016-04-24T01:38:44.736Z,987.76
2016-04-24T01:39:44.738Z,987.71
2016-04-24T01:40:44.741Z,987.82
2016-04-24T01:41:44.744Z,987.72
2016-04-24T01:42:44.949Z,987.77
2016-04-24T01:43:44.735Z,987.76
2016-04-24T01:44:44.721Z,987.8
2016-04-24T01:45:44.724Z,987.79
2016-04-24T01:46:44.711Z,987.77
2016-04-24T01:47:44.713Z,987.75
2016-04-24T01:48:44.701Z,987.76
2016-04-24T01:49:44.703Z,987.73
2016-04-24T01:50:44.690Z,987.83
2016-04-24T01:51:44.693Z,987.81
2016-04-24T01:52:45.024Z,987.82
2016-04-24T01:53:44.717Z,987.82
2016-04-24T01:54:44.760Z,987.8
2016-04-24T01:55:44.818Z,987.83
2016-04-24T01:56:44.830Z,987.84
2016-04-24T01:57:44.858Z,987.78
2016-04-24T01:58:44.878Z,987.85
2016-04-24T01:59:44.896Z,987.74
2016-04-24T02:00:44.898Z,987.88
2016-04-24T02:01:44.931Z,987.85
2016-04-24T02:02:44.917Z,987.84
2016-04-24T02:03:44.926Z,987.87
2016-04-24T02:04:44.919Z,987.91
2016-04-24T02:05:44.926Z,987.92
2016-04-24T02:06:44.919Z,987.92
2016-04-24T02:07:44.958Z,987.94
2016-04-24T02:08:44.932Z,987.9
2016-04-24T02:09:44.921Z,988.02
2016-04-24T02:10:44.926Z,987.95
2016-04-24T02:11:44.915Z,988
2016-04-24T02:12:44.920Z,987.99
2016-04-24T02:13:45.142Z,987.99
2016-04-24T02:14:44.911Z,988.03
2016-04-24T02:15:44.898Z,988.04
2016-04-24T02:16:45.104Z,988.03
2016-04-24T02:17:44.904Z,988.03
2016-04-24T02:18:44.906Z,988.04
2016-04-24T02:19:45.098Z,988.08
2016-04-24T02:20:44.898Z,988.1
2016-04-24T02:21:44.885Z,988.11
2016-04-24T02:22:44.872Z,988.1
2016-04-24T02:23:44.891Z,988.14
2016-04-24T02:24:44.878Z,988.15
2016-04-24T02:25:45.068Z,988.11
2016-04-24T02:26:44.868Z,988.15
2016-04-24T02:27:44.855Z,988.09
2016-04-24T02:28:45.060Z,988.14
2016-04-24T02:29:44.876Z,988.16
2016-04-24T02:30:44.848Z,988.13
2016-04-24T02:31:44.850Z,988.15
2016-04-24T02:32:44.837Z,988.14
2016-04-24T02:33:44.840Z,988.15
2016-04-24T02:34:44.826Z,988.19
2016-04-24T02:35:44.829Z,988.21
2016-04-24T02:36:44.832Z,988.2
2016-04-24T02:37:45.209Z,988.24
2016-04-24T02:39:44.793Z,988.26
2016-04-24T02:40:44.843Z,988.27
2016-04-24T02:41:45.033Z,988.23
2016-04-24T02:42:44.786Z,988.32
2016-04-24T02:43:44.788Z,988.29
2016-04-24T02:44:44.775Z,988.27
2016-04-24T02:45:44.981Z,988.31
2016-04-24T02:46:44.766Z,988.33
2016-04-24T02:48:44.786Z,988.34
2016-04-24T02:49:44.758Z,988.36
2016-04-24T02:50:44.994Z,988.37
2016-04-24T02:51:44.747Z,988.38
2016-04-24T02:52:45.172Z,988.4
2016-04-24T02:53:44.737Z,988.39
2016-04-24T02:54:44.756Z,988.41
2016-04-24T02:55:44.727Z,988.42
2016-04-24T02:56:44.745Z,988.44
2016-04-24T02:57:44.716Z,988.43
2016-04-24T02:58:44.719Z,988.4
2016-04-24T02:59:44.722Z,988.43
2016-04-24T03:00:44.709Z,988.41
2016-04-24T03:01:44.712Z,988.45
2016-04-24T03:02:44.698Z,988.47
2016-04-24T03:03:44.717Z,988.44
2016-04-24T03:04:44.704Z,988.46
2016-04-24T03:05:44.706Z,988.51
2016-04-24T03:06:44.695Z,988.51
2016-04-24T03:07:44.759Z,988.51
2016-04-24T03:09:44.671Z,988.46
2016-04-24T03:10:44.673Z,988.47
2016-04-24T03:11:44.864Z,988.49
2016-04-24T03:12:44.664Z,988.52
2016-04-24T03:13:44.697Z,988.54
2016-04-24T03:14:44.653Z,988.5
2016-04-24T03:15:44.656Z,988.54
2016-04-24T03:16:44.643Z,988.53
2016-04-24T03:17:44.645Z,988.57
2016-04-24T03:18:44.633Z,988.51
2016-04-24T03:19:44.636Z,988.58
2016-04-24T03:20:44.653Z,988.52
2016-04-24T03:21:44.625Z,988.51
2016-04-24T03:22:44.627Z,988.53
2016-04-24T03:23:44.615Z,988.54
2016-04-24T03:24:44.836Z,988.51
2016-04-24T03:25:44.605Z,988.53
2016-04-24T03:26:44.607Z,988.56
2016-04-24T03:27:44.594Z,988.58
2016-04-24T03:28:44.596Z,988.59
2016-04-24T03:29:44.787Z,988.56
2016-04-24T03:30:44.587Z,988.63
2016-04-24T03:31:44.574Z,988.56
2016-04-24T03:32:44.576Z,988.55
2016-04-24T03:33:44.579Z,988.57
2016-04-24T03:34:44.566Z,988.62
2016-04-24T03:35:44.568Z,988.63
2016-04-24T03:36:44.556Z,988.62
2016-04-24T03:37:44.559Z,988.64
2016-04-24T03:39:44.548Z,988.63
2016-04-24T03:40:44.536Z,988.65
2016-04-24T03:41:44.538Z,988.63
2016-04-24T03:42:44.541Z,988.65
2016-04-24T03:43:44.528Z,988.69
2016-04-24T03:44:44.531Z,988.69
2016-04-24T03:45:44.518Z,988.7
2016-04-24T03:46:44.505Z,988.68
2016-04-24T03:47:44.522Z,988.7
2016-04-24T03:48:44.511Z,988.76
2016-04-24T03:49:44.497Z,988.69
2016-04-24T03:50:44.500Z,988.73
2016-04-24T03:52:45.005Z,988.72
2016-04-24T03:53:44.679Z,988.73
2016-04-24T03:54:44.480Z,988.76
2016-04-24T03:55:44.483Z,988.76
2016-04-24T03:56:44.485Z,988.79
2016-04-24T03:57:44.456Z,988.78
2016-04-24T03:58:44.460Z,988.77
2016-04-24T03:59:44.476Z,988.75
2016-04-24T04:00:44.449Z,988.78
2016-04-24T04:01:44.451Z,988.75
2016-04-24T04:02:44.438Z,988.79
2016-04-24T04:03:44.440Z,988.81
2016-04-24T04:04:44.444Z,988.78
2016-04-24T04:05:44.665Z,988.8
2016-04-24T04:06:44.434Z,988.8
2016-04-24T04:07:44.420Z,988.8
2016-04-24T04:08:44.548Z,988.81
2016-04-24T04:09:44.426Z,988.84
2016-04-24T04:10:44.413Z,988.79
2016-04-24T04:11:44.415Z,988.8
2016-04-24T04:12:44.403Z,988.85
2016-04-24T04:13:44.639Z,988.82
2016-04-24T04:14:44.424Z,988.83
2016-04-24T04:15:44.583Z,988.86
2016-04-24T04:16:44.383Z,988.9
2016-04-24T04:17:44.385Z,988.88
2016-04-24T04:18:44.388Z,988.94
2016-04-24T04:19:44.375Z,988.95
2016-04-24T04:20:44.378Z,988.99
2016-04-24T04:21:44.599Z,988.98
2016-04-24T04:22:44.617Z,988.97
2016-04-24T04:23:44.354Z,989.01
2016-04-24T04:24:44.544Z,989
2016-04-24T04:25:44.344Z,989
2016-04-24T04:26:44.347Z,988.98
2016-04-24T04:27:44.333Z,989.05
2016-04-24T04:28:44.352Z,989.02
2016-04-24T04:29:44.324Z,989.05
2016-04-24T04:30:44.326Z,989.04
2016-04-24T04:31:44.329Z,989.03
2016-04-24T04:32:44.316Z,989.05
2016-04-24T04:33:44.318Z,989.06
2016-04-24T04:34:44.306Z,989.03
2016-04-24T04:35:44.309Z,989.08
2016-04-24T04:36:44.311Z,989.12
2016-04-24T04:37:44.298Z,989.08
2016-04-24T04:38:44.301Z,989.1
2016-04-24T04:39:44.288Z,989.13
2016-04-24T04:40:44.290Z,989.11
2016-04-24T04:41:44.293Z,989.17
2016-04-24T04:43:44.267Z,989.14
2016-04-24T04:44:44.286Z,989.15
2016-04-24T04:45:44.273Z,989.15
2016-04-24T04:46:44.275Z,989.18
2016-04-24T04:47:44.262Z,989.15
2016-04-24T04:48:44.265Z,989.16
2016-04-24T04:49:44.253Z,989.15
2016-04-24T04:50:44.286Z,989.13
2016-04-24T04:51:44.242Z,989.15
2016-04-24T04:52:44.260Z,989.17
2016-04-24T04:53:44.247Z,989.15
2016-04-24T04:54:44.235Z,989.12
2016-04-24T04:55:44.237Z,989.15
2016-04-24T04:56:44.224Z,989.2
2016-04-24T04:57:44.227Z,989.19
2016-04-24T04:58:44.246Z,989.23
2016-04-24T04:59:44.216Z,989.26
2016-04-24T05:00:44.219Z,989.28
2016-04-24T05:01:44.221Z,989.29
2016-04-24T05:02:44.210Z,989.33
2016-04-24T05:03:44.415Z,989.33
2016-04-24T05:04:44.199Z,989.29
2016-04-24T05:05:44.201Z,989.34
2016-04-24T05:06:44.204Z,989.37
2016-04-24T05:07:44.222Z,989.34
2016-04-24T05:08:44.616Z,989.39
2016-04-24T05:09:44.196Z,989.38
2016-04-24T05:10:44.184Z,989.37
2016-04-24T05:11:44.186Z,989.41
2016-04-24T05:12:44.174Z,989.39
2016-04-24T05:13:44.176Z,989.39
2016-04-24T05:15:44.166Z,989.48
2016-04-24T05:16:44.169Z,989.49
2016-04-24T05:17:44.171Z,989.49
2016-04-24T05:18:44.159Z,989.46
2016-04-24T05:20:44.147Z,989.44
2016-04-24T05:21:44.150Z,989.44
2016-04-24T05:22:44.139Z,989.44
2016-04-24T05:23:44.578Z,989.41
2016-04-24T05:24:44.143Z,989.42
2016-04-24T05:25:44.130Z,989.48
2016-04-24T05:26:44.132Z,989.48
2016-04-24T05:27:44.136Z,989.47
2016-04-24T05:28:44.139Z,989.5
2016-04-24T05:29:44.125Z,989.49
2016-04-24T05:30:44.127Z,989.55
2016-04-24T05:32:44.118Z,989.56
2016-04-24T05:33:44.105Z,989.61
2016-04-24T05:34:44.107Z,989.6
2016-04-24T05:35:44.141Z,989.64
2016-04-24T05:36:44.097Z,989.59
2016-04-24T05:37:44.101Z,989.59
2016-04-24T05:38:44.118Z,989.63
2016-04-24T05:39:44.121Z,989.64
2016-04-24T05:40:44.108Z,989.64
2016-04-24T05:41:44.112Z,989.64
2016-04-24T05:42:44.098Z,989.66
2016-04-24T05:43:44.085Z,989.65
2016-04-24T05:44:44.087Z,989.63
2016-04-24T05:45:44.090Z,989.61
2016-04-24T05:46:44.092Z,989.62
2016-04-24T05:47:44.081Z,989.62
2016-04-24T05:48:44.083Z,989.61
2016-04-24T05:49:44.070Z,989.6
2016-04-24T05:50:44.072Z,989.61
2016-04-24T05:51:44.075Z,989.6
2016-04-24T05:52:44.109Z,989.64
2016-04-24T05:53:44.065Z,989.59
2016-04-24T05:54:44.067Z,989.64
2016-04-24T05:55:44.070Z,989.63
2016-04-24T05:56:44.072Z,989.63
2016-04-24T05:57:44.263Z,989.62
2016-04-24T05:58:44.063Z,989.66
2016-04-24T05:59:44.050Z,989.7
2016-04-24T06:00:44.052Z,989.64
2016-04-24T06:01:44.055Z,989.64
2016-04-24T06:02:44.058Z,989.66
2016-04-24T06:03:44.045Z,989.67
2016-04-24T06:04:44.048Z,989.72
2016-04-24T06:05:44.051Z,989.74
2016-04-24T06:06:44.053Z,989.66
2016-04-24T06:07:44.040Z,989.73
2016-04-24T06:08:44.621Z,989.72
2016-04-24T06:09:44.029Z,989.69
2016-04-24T06:10:44.032Z,989.7
2016-04-24T06:11:44.035Z,989.7
2016-04-24T06:12:44.038Z,989.69
2016-04-24T06:14:44.028Z,989.75
2016-04-24T06:15:44.014Z,989.81
2016-04-24T06:16:44.033Z,989.73
2016-04-24T06:17:44.020Z,989.75
2016-04-24T06:18:44.023Z,989.73
2016-04-24T06:19:44.228Z,989.73
2016-04-24T06:20:44.028Z,989.75
2016-04-24T06:21:44.014Z,989.71
2016-04-24T06:22:44.008Z,989.7
2016-04-24T06:23:44.026Z,989.71
2016-04-24T06:24:44.014Z,989.75
2016-04-24T06:25:44.000Z,989.76
2016-04-24T06:26:44.003Z,989.79
2016-04-24T06:27:44.006Z,989.84
2016-04-24T06:28:44.009Z,989.81
2016-04-24T06:29:43.995Z,989.79
2016-04-24T06:30:43.998Z,989.82
2016-04-24T06:31:44.001Z,989.74
2016-04-24T06:32:44.208Z,989.74
2016-04-24T06:33:43.991Z,989.71
2016-04-24T06:34:43.994Z,989.76
2016-04-24T06:35:43.996Z,989.69
2016-04-24T06:36:43.999Z,989.7
2016-04-24T06:37:43.986Z,989.69
2016-04-24T06:38:44.005Z,989.72
2016-04-24T06:39:43.991Z,989.75
2016-04-24T06:40:43.994Z,989.72
2016-04-24T06:41:44.012Z,989.72
2016-04-24T06:42:43.985Z,989.72
2016-04-24T06:43:43.986Z,989.76
2016-04-24T06:44:43.990Z,989.76
2016-04-24T06:45:43.976Z,989.75
2016-04-24T06:46:43.979Z,989.73
2016-04-24T06:47:43.981Z,989.72
2016-04-24T06:48:43.969Z,989.74
2016-04-24T06:49:43.971Z,989.7
2016-04-24T06:50:43.974Z,989.72
2016-04-24T06:51:43.976Z,989.69
2016-04-24T06:52:43.965Z,989.67
2016-04-24T06:53:43.967Z,989.73
2016-04-24T06:54:43.970Z,989.72
2016-04-24T06:55:43.956Z,989.78
2016-04-24T06:56:43.959Z,989.73
2016-04-24T06:58:43.965Z,989.78
2016-04-24T06:59:43.951Z,989.78
2016-04-24T07:00:43.954Z,989.75
2016-04-24T07:01:43.956Z,989.68
2016-04-24T07:02:43.944Z,989.7
2016-04-24T07:03:43.946Z,989.69
2016-04-24T07:04:43.949Z,989.66
2016-04-24T07:05:43.952Z,989.73
2016-04-24T07:06:43.939Z,989.68
2016-04-24T07:07:43.941Z,989.72
2016-04-24T07:08:44.241Z,989.68
2016-04-24T07:09:43.947Z,989.75
2016-04-24T07:10:43.950Z,989.78
2016-04-24T07:11:43.937Z,989.82
2016-04-24T07:12:43.940Z,989.88
2016-04-24T07:13:43.927Z,989.89
2016-04-24T07:14:43.960Z,989.92
2016-04-24T07:15:43.932Z,989.88
2016-04-24T07:16:43.935Z,989.93
2016-04-24T07:17:43.937Z,989.96
2016-04-24T07:18:43.924Z,990
2016-04-24T07:19:43.926Z,989.99
2016-04-24T07:20:43.930Z,990.04
2016-04-24T07:21:43.965Z,990.07
2016-04-24T07:23:44.422Z,989.97
2016-04-24T07:24:43.940Z,989.94
2016-04-24T07:25:43.927Z,989.82
2016-04-24T07:26:43.931Z,989.84
2016-04-24T07:27:43.918Z,990.02
2016-04-24T07:28:43.951Z,990.1
2016-04-24T07:29:43.922Z,990.17
2016-04-24T07:30:43.926Z,990.11
2016-04-24T07:31:43.928Z,989.99
2016-04-24T07:32:43.931Z,990.02
2016-04-24T07:33:43.918Z,989.94
2016-04-24T07:34:43.920Z,989.92
2016-04-24T07:35:44.127Z,989.94
2016-04-24T07:36:43.910Z,989.99
2016-04-24T07:37:43.913Z,989.98
2016-04-24T07:38:43.916Z,989.93
2016-04-24T07:39:43.919Z,989.89
2016-04-24T07:40:43.936Z,989.8
2016-04-24T07:41:43.924Z,989.74
2016-04-24T07:42:44.035Z,989.74
2016-04-24T07:43:43.913Z,989.77
2016-04-24T07:44:43.916Z,989.73
2016-04-24T07:45:43.919Z,989.74
2016-04-24T07:46:43.921Z,989.75
2016-04-24T07:47:43.940Z,989.87
2016-04-24T07:48:43.911Z,989.91
2016-04-24T07:49:43.946Z,989.92
2016-04-24T07:50:43.948Z,989.99
2016-04-24T07:51:43.920Z,990.01
2016-04-24T07:52:43.922Z,990
2016-04-24T07:53:43.925Z,989.99
2016-04-24T07:54:43.927Z,990.01
2016-04-24T07:55:43.931Z,989.99
2016-04-24T07:56:44.137Z,990
2016-04-24T07:57:43.951Z,990.01
2016-04-24T07:58:44.156Z,989.94
2016-04-24T07:59:43.925Z,989.98
2016-04-24T08:00:43.928Z,990.03
2016-04-24T08:01:43.914Z,990.03
2016-04-24T08:02:43.918Z,989.99
2016-04-24T08:03:43.920Z,989.93
2016-04-24T08:04:43.923Z,989.91
2016-04-24T08:05:43.941Z,989.87
2016-04-24T08:06:43.944Z,989.89
2016-04-24T08:07:44.150Z,989.8
2016-04-24T08:08:44.809Z,989.73
2016-04-24T08:09:43.936Z,989.81
2016-04-24T08:10:43.924Z,989.83
2016-04-24T08:11:43.926Z,989.93
2016-04-24T08:12:43.929Z,989.98
2016-04-24T08:13:43.932Z,990.05
2016-04-24T08:15:43.937Z,989.88
2016-04-24T08:16:43.955Z,989.77
2016-04-24T08:17:43.940Z,989.81
2016-04-24T08:18:43.942Z,989.85
2016-04-24T08:19:43.946Z,989.94
2016-04-24T08:20:43.963Z,990.01
2016-04-24T08:21:43.935Z,989.97
2016-04-24T08:22:43.954Z,990.04
2016-04-24T08:23:43.956Z,990.11
2016-04-24T08:24:44.415Z,990.08
2016-04-24T08:25:44.180Z,990.1
2016-04-24T08:26:44.151Z,990.11
2016-04-24T08:27:43.967Z,990.12
2016-04-24T08:28:43.953Z,990.14
2016-04-24T08:29:43.956Z,990.06
2016-04-24T08:30:43.959Z,990.09
2016-04-24T08:31:44.181Z,990.07
2016-04-24T08:32:43.965Z,990.11
2016-04-24T08:33:43.983Z,990.1
2016-04-24T08:34:43.986Z,990.06
2016-04-24T08:35:43.972Z,990
2016-04-24T08:36:43.975Z,989.94
2016-04-24T08:37:43.978Z,989.92
2016-04-24T08:38:44.089Z,989.89
2016-04-24T08:39:44.421Z,989.98
2016-04-24T08:40:44.220Z,989.95
2016-04-24T08:41:43.989Z,989.92
2016-04-24T08:42:43.991Z,989.81
2016-04-24T08:43:43.994Z,989.75
2016-04-24T08:44:43.997Z,989.71
2016-04-24T08:45:43.999Z,989.68
2016-04-24T08:46:44.002Z,989.75
2016-04-24T08:47:44.005Z,989.83
2016-04-24T08:48:44.226Z,989.92
2016-04-24T08:49:44.026Z,989.93
2016-04-24T08:50:44.231Z,989.86
2016-04-24T08:51:44.625Z,989.88
2016-04-24T08:52:44.035Z,989.78
2016-04-24T08:53:44.193Z,989.76
2016-04-24T08:54:44.148Z,989.7
2016-04-24T08:55:44.042Z,989.75
2016-04-24T08:56:44.045Z,989.82
2016-04-24T08:57:44.062Z,989.85
2016-04-24T08:58:44.050Z,989.89
2016-04-24T08:59:44.053Z,989.88
2016-04-24T09:00:44.056Z,989.93
2016-04-24T09:01:44.058Z,989.99
2016-04-24T09:03:44.095Z,989.93
2016-04-24T09:04:44.097Z,989.93
2016-04-24T09:05:44.069Z,990.01
2016-04-24T09:06:44.103Z,989.93
2016-04-24T09:07:44.089Z,989.88
2016-04-24T09:08:44.077Z,989.67
2016-04-24T09:09:44.080Z,989.71
2016-04-24T09:10:44.130Z,989.68
2016-04-24T09:11:44.101Z,989.66
2016-04-24T09:12:44.103Z,989.7
2016-04-24T09:13:44.106Z,989.75
2016-04-24T09:14:44.108Z,989.82
2016-04-24T09:15:44.111Z,989.71
2016-04-24T09:16:44.114Z,989.71
2016-04-24T09:17:44.116Z,989.67
2016-04-24T09:18:44.119Z,989.67
2016-04-24T09:20:44.125Z,989.64
2016-04-24T09:21:44.534Z,989.68
2016-04-24T09:22:44.130Z,989.69
2016-04-24T09:23:44.132Z,989.67
2016-04-24T09:24:44.151Z,989.68
2016-04-24T09:25:44.154Z,989.71
2016-04-24T09:26:44.157Z,989.67
2016-04-24T09:27:44.159Z,989.62
2016-04-24T09:28:44.162Z,989.61
2016-04-24T09:29:44.227Z,989.63
2016-04-24T09:30:44.167Z,989.71
2016-04-24T09:31:44.170Z,989.79
2016-04-24T09:32:44.172Z,989.86
2016-04-24T09:33:44.176Z,990.01
2016-04-24T09:34:44.397Z,990.15
2016-04-24T09:35:44.197Z,990.13
2016-04-24T09:36:44.200Z,990.09
2016-04-24T09:37:44.420Z,990.06
2016-04-24T09:38:44.626Z,989.94
2016-04-24T09:39:45.128Z,989.92
2016-04-24T09:40:44.429Z,989.85
2016-04-24T09:41:44.213Z,989.86
2016-04-24T09:43:44.453Z,990
2016-04-24T09:44:44.221Z,990.01
2016-04-24T09:45:44.224Z,990.01
2016-04-24T09:46:44.227Z,990.03
2016-04-24T09:47:44.245Z,989.96
2016-04-24T09:48:44.247Z,990.05
2016-04-24T09:49:44.250Z,990.04
2016-04-24T09:50:44.252Z,990.07
2016-04-24T09:51:44.286Z,990.07
2016-04-24T09:52:44.257Z,990.09
2016-04-24T09:53:44.261Z,990.11
2016-04-24T09:54:44.294Z,990.1
2016-04-24T09:55:44.266Z,990
2016-04-24T09:56:44.284Z,989.97
2016-04-24T09:57:44.287Z,989.95
2016-04-24T09:58:44.290Z,989.94
2016-04-24T09:59:44.292Z,989.89
2016-04-24T10:00:44.310Z,989.81
2016-04-24T10:01:44.313Z,989.72
2016-04-24T10:02:44.348Z,989.7
2016-04-24T10:03:44.725Z,989.75
2016-04-24T10:04:44.321Z,989.68
2016-04-24T10:05:44.574Z,989.61
2016-04-24T10:06:44.342Z,989.5
2016-04-24T10:07:44.345Z,989.42
2016-04-24T10:08:44.411Z,989.41
2016-04-24T10:09:44.601Z,989.43
2016-04-24T10:10:44.369Z,989.53
2016-04-24T10:11:44.372Z,989.59
2016-04-24T10:12:44.375Z,989.61
2016-04-24T10:13:44.580Z,989.69
2016-04-24T10:14:44.380Z,989.6
2016-04-24T10:15:44.586Z,989.6
2016-04-24T10:16:44.400Z,989.64
2016-04-24T10:17:44.403Z,989.6
2016-04-24T10:18:44.406Z,989.64
2016-04-24T10:19:44.408Z,989.51
2016-04-24T10:20:44.412Z,989.57
2016-04-24T10:21:44.430Z,989.53
2016-04-24T10:22:44.432Z,989.5
2016-04-24T10:23:44.435Z,989.51
2016-04-24T10:24:44.453Z,989.4
2016-04-24T10:25:44.472Z,989.35
2016-04-24T10:26:44.677Z,989.3
2016-04-24T10:27:44.477Z,989.17
2016-04-24T10:29:44.499Z,989.12
2016-04-24T10:30:44.470Z,989.08
2016-04-24T10:31:44.488Z,989.08
2016-04-24T10:32:44.928Z,989.09
2016-04-24T10:33:44.493Z,989.1
2016-04-24T10:34:44.496Z,989.1
2016-04-24T10:36:44.518Z,989.05
2016-04-24T10:37:44.520Z,989.09
2016-04-24T10:39:44.540Z,989.12
2016-04-24T10:40:44.934Z,989.08
2016-04-24T10:41:44.530Z,989.05
2016-04-24T10:42:44.533Z,989.01
2016-04-24T10:43:44.536Z,988.94
2016-04-24T10:44:44.539Z,988.9
2016-04-24T10:45:44.542Z,988.92
2016-04-24T10:46:44.544Z,988.87
2016-04-24T10:47:44.546Z,988.87
2016-04-24T10:48:44.565Z,988.87
2016-04-24T10:49:44.552Z,988.82
2016-04-24T10:50:44.570Z,988.78
2016-04-24T10:51:44.777Z,988.76
2016-04-24T10:52:44.575Z,988.76
2016-04-24T10:53:44.578Z,988.75
2016-04-24T10:54:44.660Z,988.76
2016-04-24T10:55:44.615Z,988.78
2016-04-24T10:56:44.586Z,988.79
2016-04-24T10:57:44.793Z,988.79
2016-04-24T10:58:44.998Z,988.83
2016-04-24T10:59:44.601Z,988.84
2016-04-24T11:00:44.660Z,988.84
2016-04-24T11:01:44.688Z,988.94
2016-04-24T11:02:44.764Z,988.95
2016-04-24T11:03:44.808Z,988.99
2016-04-24T11:04:45.019Z,988.98
2016-04-24T11:05:44.833Z,988.99
2016-04-24T11:06:44.851Z,988.95
2016-04-24T11:07:44.884Z,988.99
2016-04-24T11:08:44.902Z,989.02
2016-04-24T11:10:44.943Z,988.84
2016-04-24T11:11:44.934Z,988.79
2016-04-24T11:12:44.927Z,988.85
2016-04-24T11:13:44.951Z,988.82
2016-04-24T11:14:44.942Z,988.83
2016-04-24T11:15:44.963Z,988.81
2016-04-24T11:16:44.967Z,988.76
2016-04-24T11:17:44.972Z,988.8
2016-04-24T11:18:44.977Z,988.79
2016-04-24T11:19:44.981Z,988.83
2016-04-24T11:20:44.984Z,988.86
2016-04-24T11:22:45.021Z,988.82
2016-04-24T11:23:44.993Z,988.88
2016-04-24T11:24:44.996Z,988.92
2016-04-24T11:25:45.030Z,988.97
2016-04-24T11:26:45.033Z,989.02
2016-04-24T11:27:45.100Z,989.03
2016-04-24T11:28:45.055Z,989.15
2016-04-24T11:29:45.043Z,989.25
2016-04-24T11:30:45.093Z,989.34
2016-04-24T11:31:45.017Z,989.36
2016-04-24T11:32:45.051Z,989.37
2016-04-24T11:33:45.069Z,989.17
2016-04-24T11:34:45.119Z,989.15
2016-04-24T11:35:45.043Z,988.97
2016-04-24T11:36:45.061Z,989
2016-04-24T11:37:45.361Z,989.01
2016-04-24T11:39:45.585Z,989.13
2016-04-24T11:40:45.088Z,989.22
2016-04-24T11:41:45.059Z,989.13
2016-04-24T11:42:45.062Z,989.18
2016-04-24T11:43:45.144Z,989.17
2016-04-24T11:44:45.083Z,989.25
2016-04-24T11:45:45.070Z,989.27
2016-04-24T11:46:45.135Z,989.21
2016-04-24T11:47:45.076Z,989.18
2016-04-24T11:48:45.110Z,989.22
2016-04-24T11:49:45.081Z,989.25
2016-04-24T11:50:45.131Z,989.29
2016-04-24T11:51:45.118Z,989.29
2016-04-24T11:52:45.105Z,989.23
2016-04-24T11:53:45.139Z,989.25
2016-04-24T11:54:45.251Z,989.22
2016-04-24T11:55:45.145Z,989.31
2016-04-24T11:56:45.100Z,989.3
2016-04-24T11:57:45.118Z,989.34
2016-04-24T11:58:45.106Z,989.27
2016-04-24T11:59:45.092Z,989.24
2016-04-24T12:00:45.111Z,989.13
2016-04-24T12:01:45.316Z,989.07
2016-04-24T12:03:45.306Z,988.92
2016-04-24T12:04:45.106Z,988.89
2016-04-24T12:05:45.108Z,988.9
2016-04-24T12:06:45.111Z,988.86
2016-04-24T12:07:45.114Z,988.89
2016-04-24T12:08:45.319Z,988.84
2016-04-24T12:09:45.135Z,988.83
2016-04-24T12:10:45.106Z,988.74
2016-04-24T12:11:45.108Z,988.76
2016-04-24T12:12:45.111Z,988.7
2016-04-24T12:13:45.255Z,988.7
2016-04-24T12:14:45.116Z,988.68
2016-04-24T12:15:45.151Z,988.68
2016-04-24T12:16:45.122Z,988.61
2016-04-24T12:17:45.125Z,988.63
2016-04-24T12:18:45.268Z,988.64
2016-04-24T12:19:45.162Z,988.65
2016-04-24T12:20:45.148Z,988.66
2016-04-24T12:21:45.151Z,988.7
2016-04-24T12:22:45.123Z,988.84
2016-04-24T12:23:45.125Z,988.91
2016-04-24T12:24:45.144Z,988.91
2016-04-24T12:25:45.146Z,988.86
2016-04-24T12:26:45.149Z,988.75
2016-04-24T12:27:45.371Z,988.69
2016-04-24T12:28:45.186Z,988.59
2016-04-24T12:29:45.157Z,988.6
2016-04-24T12:31:45.162Z,988.73
2016-04-24T12:32:45.369Z,988.77
2016-04-24T12:33:45.168Z,988.67
2016-04-24T12:34:45.170Z,988.63
2016-04-24T12:35:45.189Z,988.64
2016-04-24T12:36:45.176Z,988.6
2016-04-24T12:37:45.178Z,988.56
2016-04-24T12:38:45.166Z,988.55
2016-04-24T12:39:45.184Z,988.49
2016-04-24T12:40:45.186Z,988.42
2016-04-24T12:41:45.393Z,988.43
2016-04-24T12:42:45.192Z,988.41
2016-04-24T12:43:45.194Z,988.44
2016-04-24T12:44:45.213Z,988.38
2016-04-24T12:45:45.200Z,988.36
2016-04-24T12:46:45.438Z,988.3
2016-04-24T12:47:45.222Z,988.27
2016-04-24T12:48:45.208Z,988.24
2016-04-24T12:49:45.210Z,988.24
2016-04-24T12:50:45.433Z,988.19
2016-04-24T12:51:45.232Z,988.23
2016-04-24T12:52:45.219Z,988.18
2016-04-24T12:53:45.216Z,988.14
2016-04-24T12:54:45.218Z,988.06
2016-04-24T12:55:45.658Z,988.09
2016-04-24T12:56:45.269Z,988.02
2016-04-24T12:57:45.227Z,988.12
2016-04-24T12:58:45.229Z,988.18
2016-04-24T12:59:45.638Z,988.2
2016-04-24T13:00:45.249Z,988.26
2016-04-24T13:01:45.237Z,988.4